6 a 12/10: Fresco a templado C (más cálido O y Cba), cálido norte. Episodios de inestabilidad aislados.

Avatar de Usuario
Ezequiel1995
Mensajes: 1276
Registrado: Mar Nov 12, 2019 4:50 pm
Ubicación: Merlo, Buenos Aires
Contactar:

Re: 6 a 12/10: Fresco a templado C (más cálido O y Cba), cálido norte. Episodios de inestabilidad aislados.

Mensaje por Ezequiel1995 » Sab Oct 10, 2020 10:11 pm

Hay un viento raro acá. Esperando la lluvia

Avatar de Usuario
HernanCba
Mensajes: 3155
Registrado: Sab Mar 02, 2013 1:21 am
Ubicación: Cosquín, Valle de Punilla, Córdoba
Contactar:

Re: 6 a 12/10: Fresco a templado C (más cálido O y Cba), cálido norte. Episodios de inestabilidad aislados.

Mensaje por HernanCba » Sab Oct 10, 2020 10:16 pm

Tremenda tempestad de polvo en las sierras. Visibilidad muy reducida

Avatar de Usuario
Diecha
Mensajes: 11877
Registrado: Jue Ago 25, 2011 9:31 pm
Ubicación: Lomas de Zamora

Re: 6 a 12/10: Fresco a templado C (más cálido O y Cba), cálido norte. Episodios de inestabilidad aislados.

Mensaje por Diecha » Sab Oct 10, 2020 10:31 pm

Imagen

Imagen
Spoiler
Mostrar
Imagen
Imagen
Imagen
Imagen
Imagen
Imagen
Imagen
Imagen
Imagen
Imagen
Imagen

Avatar de Usuario
pupy
Mensajes: 2451
Registrado: Mar Mar 02, 2010 7:15 pm
Ubicación: Cordoba capital

Re: 6 a 12/10: Fresco a templado C (más cálido O y Cba), cálido norte. Episodios de inestabilidad aislados.

Mensaje por pupy » Sab Oct 10, 2020 10:33 pm

Por cordoba capital viento del cuadrante sur con rafagas. Visibilidad reducida por tempestad de polvo.

En la localidad de Luyaba, cordoba incendio totalmente descontrolado !!!!



Avatar de Usuario
lucas de zarate
Mensajes: 7406
Registrado: Lun Jul 13, 2009 8:38 pm
Ubicación: zárate, pcia de bs as, argentina

Re: 6 a 12/10: Fresco a templado C (más cálido O y Cba), cálido norte. Episodios de inestabilidad aislados.

Mensaje por lucas de zarate » Sab Oct 10, 2020 11:35 pm

Imagen

Avatar de Usuario
NikoStorm
Mensajes: 54
Registrado: Dom Ago 09, 2015 4:53 pm
Ubicación: Punta Alta
Contactar:

Re: 6 a 12/10: Fresco a templado C (más cálido O y Cba), cálido norte. Episodios de inestabilidad aislados.

Mensaje por NikoStorm » Dom Oct 11, 2020 12:13 am

Llueve desde la tarde/noche en Punta Alta, con algo de actividad eléctrica al comienzo. (Video de las 19hs)
NO TE OLVIDES DE VISITAR Y SUSCRIBIRTE

https://www.youtube.com/channel/UCfN5G0 ... hp1sZoOM0w

Avatar de Usuario
Diecha
Mensajes: 11877
Registrado: Jue Ago 25, 2011 9:31 pm
Ubicación: Lomas de Zamora

Re: 6 a 12/10: Fresco a templado C (más cálido O y Cba), cálido norte. Episodios de inestabilidad aislados.

Mensaje por Diecha » Dom Oct 11, 2020 12:23 am

- San Fernando 00 hs: SADF 110300Z 05007KT CAVOK 16/09 Q1013
- Aeroparque 00 hs: SABE 110300Z 01007KT 310V050 CAVOK 18/09 Q1014
- Ezeiza 00 hs: SAEZ 110300Z 05013KT CAVOK 18/08 Q1013

Imagen
Imagen


Avatar de Usuario
Marg Tor
Mensajes: 1713
Registrado: Jue Sep 20, 2018 8:54 pm
Ubicación: Rosario

Re: 6 a 12/10: Fresco a templado C (más cálido O y Cba), cálido norte. Episodios de inestabilidad aislados.

Mensaje por Marg Tor » Dom Oct 11, 2020 12:49 am

Llegó el frente por acá. Por ahora tranquilas las ráfagas.
20,4° y 45% HR en la ema.
Nena, vi un rayo... vuelvo en unas horas...
Te duele el calor y la humedad? Adermicina.
EMA Villa Gdor. Gálvez
EMA Villa Gdor. Gálvez Cooperativa

Responder